Alva, Florida
Current Conditions -  °F | °C
As of 8:53 PM on Friday 31 Oct 2014 (Local Time) from KRSW Reporting Station
Clear Clear  
Wind Chill: 67°   Ceiling: Unl
Heat Index: 67°   Visibility: 10mi
Dew Point: 52°   Wind: 3mph
Humidity: 59%   Direction: 320°NW
Pressure: 29.91"   Gusts: NA
Location:  26.72°N, 81.61°W
Report Text: KRSW 010053Z AUTO 32003KT 10SM CLR 19/11 A2991 RMK AO2 SLP125 T01940111
Loading
Personal Weather Stations






























Interactive Weather Map
Tropical Storm Tracking
New forecast layout! Learn more

10-Day Weather Forecast

Advertisements
Track Severe Weather on mobile